sensor_id;sensor_type;location;lat;lon;timestamp;P1;durP1;ratioP1;P2;durP2;ratioP2
67986;SDS011;54767;53.800;15.956;2023-02-01T00:01:31;12.30;;;2.60;;
67986;SDS011;54767;53.800;15.956;2023-02-01T00:03:59;14.70;;;2.50;;
67986;SDS011;54767;53.800;15.956;2023-02-01T00:06:27;8.80;;;2.40;;
67986;SDS011;54767;53.800;15.956;2023-02-01T00:08:55;16.80;;;3.30;;
67986;SDS011;54767;53.800;15.956;2023-02-01T00:11:24;13.30;;;2.70;;
67986;SDS011;54767;53.800;15.956;2023-02-01T00:13:53;10.00;;;2.00;;
67986;SDS011;54767;53.800;15.956;2023-02-01T00:16:25;13.50;;;3.30;;
67986;SDS011;54767;53.800;15.956;2023-02-01T00:19:02;14.20;;;2.50;;
67986;SDS011;54767;53.800;15.956;2023-02-01T00:21:33;7.80;;;1.90;;
67986;SDS011;54767;53.800;15.956;2023-02-01T00:24:04;14.50;;;2.30;;
67986;SDS011;54767;53.800;15.956;2023-02-01T00:26:34;10.00;;;2.20;;
67986;SDS011;54767;53.800;15.956;2023-02-01T00:29:05;12.60;;;2.50;;
67986;SDS011;54767;53.800;15.956;2023-02-01T00:31:37;16.90;;;2.60;;
67986;SDS011;54767;53.800;15.956;2023-02-01T00:34:05;10.20;;;2.10;;
67986;SDS011;54767;53.800;15.956;2023-02-01T00:36:33;11.10;;;2.50;;
67986;SDS011;54767;53.800;15.956;2023-02-01T00:39:02;14.40;;;3.10;;
67986;SDS011;54767;53.800;15.956;2023-02-01T00:41:30;11.90;;;2.00;;
67986;SDS011;54767;53.800;15.956;2023-02-01T00:43:58;10.40;;;2.50;;
67986;SDS011;54767;53.800;15.956;2023-02-01T00:46:27;12.40;;;2.50;;
67986;SDS011;54767;53.800;15.956;2023-02-01T00:48:56;11.90;;;2.30;;
67986;SDS011;54767;53.800;15.956;2023-02-01T00:51:26;11.10;;;2.10;;
67986;SDS011;54767;53.800;15.956;2023-02-01T00:53:55;9.90;;;2.30;;
67986;SDS011;54767;53.800;15.956;2023-02-01T00:56:24;12.40;;;2.20;;
67986;SDS011;54767;53.800;15.956;2023-02-01T00:58:55;11.10;;;2.40;;
67986;SDS011;54767;53.800;15.956;2023-02-01T01:01:24;11.90;;;2.30;;
67986;SDS011;54767;53.800;15.956;2023-02-01T01:03:55;12.60;;;2.50;;
67986;SDS011;54767;53.800;15.956;2023-02-01T01:06:26;10.00;;;2.90;;
67986;SDS011;54767;53.800;15.956;2023-02-01T01:08:59;13.60;;;2.40;;
67986;SDS011;54767;53.800;15.956;2023-02-01T01:11:30;14.20;;;2.40;;
67986;SDS011;54767;53.800;15.956;2023-02-01T01:14:01;9.70;;;2.00;;
67986;SDS011;54767;53.800;15.956;2023-02-01T01:16:31;11.30;;;3.00;;
67986;SDS011;54767;53.800;15.956;2023-02-01T01:19:01;11.20;;;2.80;;
67986;SDS011;54767;53.800;15.956;2023-02-01T01:21:29;11.60;;;2.70;;
67986;SDS011;54767;53.800;15.956;2023-02-01T01:23:58;13.80;;;2.80;;
67986;SDS011;54767;53.800;15.956;2023-02-01T01:26:27;11.10;;;2.50;;
67986;SDS011;54767;53.800;15.956;2023-02-01T01:28:58;10.10;;;2.20;;
67986;SDS011;54767;53.800;15.956;2023-02-01T01:31:27;15.30;;;3.10;;
67986;SDS011;54767;53.800;15.956;2023-02-01T01:33:57;11.60;;;2.70;;
67986;SDS011;54767;53.800;15.956;2023-02-01T01:36:27;13.40;;;2.30;;
67986;SDS011;54767;53.800;15.956;2023-02-01T01:38:56;11.30;;;2.30;;
67986;SDS011;54767;53.800;15.956;2023-02-01T01:41:25;14.90;;;2.60;;
67986;SDS011;54767;53.800;15.956;2023-02-01T01:44:53;9.50;;;2.00;;
67986;SDS011;54767;53.800;15.956;2023-02-01T01:47:14;10.70;;;2.20;;
67986;SDS011;54767;53.800;15.956;2023-02-01T01:49:44;12.00;;;2.30;;
67986;SDS011;54767;53.800;15.956;2023-02-01T01:52:12;14.30;;;3.10;;
67986;SDS011;54767;53.800;15.956;2023-02-01T01:54:43;11.70;;;2.20;;
67986;SDS011;54767;53.800;15.956;2023-02-01T01:57:15;8.00;;;2.10;;
67986;SDS011;54767;53.800;15.956;2023-02-01T01:59:50;9.90;;;2.00;;
67986;SDS011;54767;53.800;15.956;2023-02-01T02:02:22;10.60;;;2.40;;
67986;SDS011;54767;53.800;15.956;2023-02-01T02:04:52;8.60;;;2.10;;
67986;SDS011;54767;53.800;15.956;2023-02-01T02:07:23;8.30;;;2.10;;
67986;SDS011;54767;53.800;15.956;2023-02-01T02:09:56;9.00;;;2.10;;
67986;SDS011;54767;53.800;15.956;2023-02-01T02:12:28;8.40;;;2.00;;
67986;SDS011;54767;53.800;15.956;2023-02-01T02:14:56;9.60;;;2.20;;
67986;SDS011;54767;53.800;15.956;2023-02-01T02:35:05;8.40;;;1.80;;
67986;SDS011;54767;53.800;15.956;2023-02-01T02:37:39;11.30;;;2.50;;
67986;SDS011;54767;53.800;15.956;2023-02-01T02:43:07;14.00;;;2.20;;
67986;SDS011;54767;53.800;15.956;2023-02-01T02:46:01;9.90;;;1.90;;
67986;SDS011;54767;53.800;15.956;2023-02-01T02:54:46;10.60;;;2.60;;
67986;SDS011;54767;53.800;15.956;2023-02-01T03:00:09;14.10;;;2.60;;
67986;SDS011;54767;53.800;15.956;2023-02-01T03:03:00;8.30;;;2.30;;
67986;SDS011;54767;53.800;15.956;2023-02-01T03:05:48;9.40;;;2.30;;
67986;SDS011;54767;53.800;15.956;2023-02-01T03:08:25;8.70;;;2.10;;
67986;SDS011;54767;53.800;15.956;2023-02-01T03:11:05;15.50;;;2.90;;
67986;SDS011;54767;53.800;15.956;2023-02-01T03:13:36;11.40;;;2.80;;
67986;SDS011;54767;53.800;15.956;2023-02-01T03:19:21;11.80;;;2.00;;
67986;SDS011;54767;53.800;15.956;2023-02-01T03:21:59;10.80;;;2.80;;
67986;SDS011;54767;53.800;15.956;2023-02-01T03:24:33;12.60;;;2.60;;
67986;SDS011;54767;53.800;15.956;2023-02-01T03:27:30;13.20;;;2.60;;
67986;SDS011;54767;53.800;15.956;2023-02-01T03:30:20;15.20;;;2.30;;
67986;SDS011;54767;53.800;15.956;2023-02-01T03:32:52;10.80;;;2.50;;
67986;SDS011;54767;53.800;15.956;2023-02-01T03:35:33;11.00;;;2.30;;
67986;SDS011;54767;53.800;15.956;2023-02-01T03:38:27;7.60;;;1.90;;
67986;SDS011;54767;53.800;15.956;2023-02-01T03:47:35;14.50;;;2.50;;
67986;SDS011;54767;53.800;15.956;2023-02-01T03:50:22;12.00;;;2.60;;
67986;SDS011;54767;53.800;15.956;2023-02-01T03:52:47;11.80;;;2.30;;
67986;SDS011;54767;53.800;15.956;2023-02-01T03:55:21;11.70;;;2.50;;
67986;SDS011;54767;53.800;15.956;2023-02-01T03:57:52;12.40;;;2.10;;
67986;SDS011;54767;53.800;15.956;2023-02-01T04:00:45;11.70;;;1.90;;
67986;SDS011;54767;53.800;15.956;2023-02-01T04:03:18;11.60;;;2.00;;
67986;SDS011;54767;53.800;15.956;2023-02-01T04:05:47;11.70;;;2.30;;
67986;SDS011;54767;53.800;15.956;2023-02-01T04:08:22;9.60;;;2.30;;
67986;SDS011;54767;53.800;15.956;2023-02-01T04:10:51;9.40;;;2.50;;
67986;SDS011;54767;53.800;15.956;2023-02-01T04:13:19;11.40;;;2.60;;
67986;SDS011;54767;53.800;15.956;2023-02-01T04:15:47;15.00;;;2.30;;
67986;SDS011;54767;53.800;15.956;2023-02-01T04:18:17;11.20;;;2.40;;
67986;SDS011;54767;53.800;15.956;2023-02-01T04:20:46;9.60;;;2.50;;
67986;SDS011;54767;53.800;15.956;2023-02-01T04:23:14;8.50;;;2.20;;
67986;SDS011;54767;53.800;15.956;2023-02-01T04:25:43;7.40;;;2.00;;
67986;SDS011;54767;53.800;15.956;2023-02-01T04:28:12;13.60;;;2.50;;
67986;SDS011;54767;53.800;15.956;2023-02-01T04:30:40;7.90;;;2.10;;
67986;SDS011;54767;53.800;15.956;2023-02-01T04:33:09;7.00;;;1.90;;
67986;SDS011;54767;53.800;15.956;2023-02-01T04:35:41;11.70;;;2.50;;
67986;SDS011;54767;53.800;15.956;2023-02-01T04:38:10;8.90;;;2.60;;
67986;SDS011;54767;53.800;15.956;2023-02-01T04:40:38;7.40;;;1.90;;
67986;SDS011;54767;53.800;15.956;2023-02-01T04:43:06;11.30;;;2.10;;
67986;SDS011;54767;53.800;15.956;2023-02-01T04:45:36;9.00;;;2.00;;
67986;SDS011;54767;53.800;15.956;2023-02-01T04:48:04;15.70;;;2.50;;
67986;SDS011;54767;53.800;15.956;2023-02-01T04:50:32;8.10;;;2.10;;
67986;SDS011;54767;53.800;15.956;2023-02-01T04:53:01;10.50;;;2.10;;
67986;SDS011;54767;53.800;15.956;2023-02-01T04:55:29;11.30;;;2.70;;
67986;SDS011;54767;53.800;15.956;2023-02-01T04:57:58;10.60;;;2.40;;
67986;SDS011;54767;53.800;15.956;2023-02-01T05:00:26;12.30;;;2.20;;
67986;SDS011;54767;53.800;15.956;2023-02-01T05:02:55;10.00;;;2.20;;
67986;SDS011;54767;53.800;15.956;2023-02-01T05:05:23;5.70;;;1.80;;
67986;SDS011;54767;53.800;15.956;2023-02-01T05:07:52;10.20;;;2.00;;
67986;SDS011;54767;53.800;15.956;2023-02-01T05:10:20;12.30;;;2.30;;
67986;SDS011;54767;53.800;15.956;2023-02-01T05:12:49;8.80;;;2.00;;
67986;SDS011;54767;53.800;15.956;2023-02-01T05:15:37;9.90;;;2.20;;
67986;SDS011;54767;53.800;15.956;2023-02-01T05:18:05;13.60;;;2.20;;
67986;SDS011;54767;53.800;15.956;2023-02-01T05:20:33;8.10;;;1.80;;
67986;SDS011;54767;53.800;15.956;2023-02-01T05:23:02;7.00;;;2.00;;
67986;SDS011;54767;53.800;15.956;2023-02-01T05:25:30;8.00;;;1.50;;
67986;SDS011;54767;53.800;15.956;2023-02-01T05:27:58;7.10;;;1.60;;
67986;SDS011;54767;53.800;15.956;2023-02-01T05:30:27;7.50;;;2.00;;
67986;SDS011;54767;53.800;15.956;2023-02-01T05:32:55;11.30;;;2.10;;
67986;SDS011;54767;53.800;15.956;2023-02-01T05:35:23;15.50;;;2.30;;
67986;SDS011;54767;53.800;15.956;2023-02-01T05:37:51;10.70;;;2.40;;
67986;SDS011;54767;53.800;15.956;2023-02-01T05:40:20;7.20;;;2.00;;
67986;SDS011;54767;53.800;15.956;2023-02-01T05:42:49;7.70;;;1.90;;
67986;SDS011;54767;53.800;15.956;2023-02-01T05:45:17;6.60;;;1.80;;
67986;SDS011;54767;53.800;15.956;2023-02-01T05:47:45;11.10;;;2.40;;
67986;SDS011;54767;53.800;15.956;2023-02-01T05:50:13;11.90;;;2.40;;
67986;SDS011;54767;53.800;15.956;2023-02-01T05:52:42;9.20;;;2.00;;
67986;SDS011;54767;53.800;15.956;2023-02-01T05:55:10;10.10;;;2.20;;
67986;SDS011;54767;53.800;15.956;2023-02-01T05:57:38;13.40;;;2.30;;
67986;SDS011;54767;53.800;15.956;2023-02-01T06:00:07;9.20;;;2.10;;
67986;SDS011;54767;53.800;15.956;2023-02-01T06:02:37;8.70;;;1.90;;
67986;SDS011;54767;53.800;15.956;2023-02-01T06:05:05;9.60;;;1.80;;
67986;SDS011;54767;53.800;15.956;2023-02-01T06:07:34;12.60;;;2.70;;
67986;SDS011;54767;53.800;15.956;2023-02-01T06:10:02;10.80;;;1.80;;
67986;SDS011;54767;53.800;15.956;2023-02-01T06:12:31;9.10;;;1.80;;
67986;SDS011;54767;53.800;15.956;2023-02-01T06:15:00;12.10;;;2.70;;
67986;SDS011;54767;53.800;15.956;2023-02-01T06:17:28;6.70;;;1.90;;
67986;SDS011;54767;53.800;15.956;2023-02-01T06:19:57;7.90;;;1.80;;
67986;SDS011;54767;53.800;15.956;2023-02-01T06:22:25;9.60;;;1.60;;
67986;SDS011;54767;53.800;15.956;2023-02-01T06:24:53;7.70;;;2.00;;
67986;SDS011;54767;53.800;15.956;2023-02-01T06:27:21;6.10;;;1.80;;
67986;SDS011;54767;53.800;15.956;2023-02-01T06:29:50;5.00;;;1.40;;
67986;SDS011;54767;53.800;15.956;2023-02-01T06:32:18;5.40;;;1.70;;
67986;SDS011;54767;53.800;15.956;2023-02-01T06:34:46;8.90;;;2.00;;
67986;SDS011;54767;53.800;15.956;2023-02-01T06:37:15;7.20;;;2.00;;
67986;SDS011;54767;53.800;15.956;2023-02-01T06:39:43;6.30;;;1.70;;
67986;SDS011;54767;53.800;15.956;2023-02-01T06:42:11;7.00;;;2.10;;
67986;SDS011;54767;53.800;15.956;2023-02-01T06:44:40;7.60;;;1.90;;
67986;SDS011;54767;53.800;15.956;2023-02-01T06:47:08;7.90;;;1.70;;
67986;SDS011;54767;53.800;15.956;2023-02-01T06:49:36;8.70;;;2.10;;
67986;SDS011;54767;53.800;15.956;2023-02-01T06:52:05;9.00;;;1.90;;
67986;SDS011;54767;53.800;15.956;2023-02-01T06:54:33;17.00;;;2.30;;
67986;SDS011;54767;53.800;15.956;2023-02-01T06:57:02;7.00;;;1.70;;
67986;SDS011;54767;53.800;15.956;2023-02-01T06:59:31;8.90;;;1.60;;
67986;SDS011;54767;53.800;15.956;2023-02-01T07:01:59;7.90;;;1.60;;
67986;SDS011;54767;53.800;15.956;2023-02-01T07:04:28;8.60;;;1.90;;
67986;SDS011;54767;53.800;15.956;2023-02-01T07:06:56;8.60;;;1.80;;
67986;SDS011;54767;53.800;15.956;2023-02-01T07:09:24;7.00;;;1.50;;
67986;SDS011;54767;53.800;15.956;2023-02-01T07:11:52;7.30;;;1.70;;
67986;SDS011;54767;53.800;15.956;2023-02-01T07:14:21;7.20;;;2.10;;
67986;SDS011;54767;53.800;15.956;2023-02-01T07:16:49;7.20;;;1.70;;
67986;SDS011;54767;53.800;15.956;2023-02-01T07:19:18;5.90;;;2.00;;
67986;SDS011;54767;53.800;15.956;2023-02-01T07:21:46;11.40;;;2.30;;
67986;SDS011;54767;53.800;15.956;2023-02-01T07:24:15;8.10;;;1.90;;
67986;SDS011;54767;53.800;15.956;2023-02-01T07:26:43;6.10;;;1.60;;
67986;SDS011;54767;53.800;15.956;2023-02-01T07:29:11;6.10;;;1.90;;
67986;SDS011;54767;53.800;15.956;2023-02-01T07:31:40;9.60;;;1.90;;
67986;SDS011;54767;53.800;15.956;2023-02-01T07:34:08;6.20;;;1.80;;
67986;SDS011;54767;53.800;15.956;2023-02-01T07:36:36;8.20;;;1.80;;
67986;SDS011;54767;53.800;15.956;2023-02-01T07:39:05;8.40;;;2.20;;
67986;SDS011;54767;53.800;15.956;2023-02-01T07:41:33;9.20;;;2.00;;
67986;SDS011;54767;53.800;15.956;2023-02-01T07:44:01;6.80;;;1.80;;
67986;SDS011;54767;53.800;15.956;2023-02-01T07:46:30;10.10;;;1.90;;
67986;SDS011;54767;53.800;15.956;2023-02-01T07:48:58;6.20;;;1.70;;
67986;SDS011;54767;53.800;15.956;2023-02-01T07:51:26;8.20;;;2.20;;
67986;SDS011;54767;53.800;15.956;2023-02-01T07:53:55;9.10;;;2.00;;
67986;SDS011;54767;53.800;15.956;2023-02-01T07:56:24;6.40;;;1.90;;
67986;SDS011;54767;53.800;15.956;2023-02-01T07:58:53;8.40;;;2.10;;
67986;SDS011;54767;53.800;15.956;2023-02-01T08:01:28;7.70;;;1.90;;
67986;SDS011;54767;53.800;15.956;2023-02-01T08:03:58;10.90;;;2.50;;
67986;SDS011;54767;53.800;15.956;2023-02-01T08:06:30;7.20;;;1.80;;
67986;SDS011;54767;53.800;15.956;2023-02-01T08:09:00;9.10;;;1.90;;
67986;SDS011;54767;53.800;15.956;2023-02-01T08:11:29;6.30;;;1.60;;
67986;SDS011;54767;53.800;15.956;2023-02-01T08:13:59;10.80;;;2.40;;
67986;SDS011;54767;53.800;15.956;2023-02-01T08:16:27;11.30;;;2.20;;
67986;SDS011;54767;53.800;15.956;2023-02-01T08:18:56;13.70;;;2.70;;
67986;SDS011;54767;53.800;15.956;2023-02-01T08:21:26;8.80;;;2.40;;
67986;SDS011;54767;53.800;15.956;2023-02-01T08:26:37;12.90;;;3.00;;
67986;SDS011;54767;53.800;15.956;2023-02-01T08:29:06;14.50;;;2.60;;
67986;SDS011;54767;53.800;15.956;2023-02-01T08:31:35;9.70;;;2.60;;
67986;SDS011;54767;53.800;15.956;2023-02-01T08:34:08;16.00;;;3.20;;
67986;SDS011;54767;53.800;15.956;2023-02-01T08:36:37;14.80;;;2.70;;
67986;SDS011;54767;53.800;15.956;2023-02-01T08:39:06;12.00;;;2.80;;
67986;SDS011;54767;53.800;15.956;2023-02-01T08:41:36;16.50;;;3.00;;
67986;SDS011;54767;53.800;15.956;2023-02-01T08:44:05;12.40;;;3.00;;
67986;SDS011;54767;53.800;15.956;2023-02-01T08:46:34;10.30;;;2.90;;
67986;SDS011;54767;53.800;15.956;2023-02-01T08:49:02;13.80;;;3.00;;
67986;SDS011;54767;53.800;15.956;2023-02-01T08:51:30;12.30;;;3.00;;
67986;SDS011;54767;53.800;15.956;2023-02-01T08:53:59;13.40;;;3.60;;
67986;SDS011;54767;53.800;15.956;2023-02-01T08:56:28;8.20;;;2.70;;
67986;SDS011;54767;53.800;15.956;2023-02-01T08:58:57;12.40;;;2.90;;
67986;SDS011;54767;53.800;15.956;2023-02-01T09:01:25;16.30;;;3.60;;
67986;SDS011;54767;53.800;15.956;2023-02-01T09:03:53;19.50;;;4.30;;
67986;SDS011;54767;53.800;15.956;2023-02-01T09:06:22;14.90;;;4.10;;
67986;SDS011;54767;53.800;15.956;2023-02-01T09:08:51;14.30;;;4.10;;
67986;SDS011;54767;53.800;15.956;2023-02-01T09:11:19;13.90;;;4.10;;
67986;SDS011;54767;53.800;15.956;2023-02-01T09:13:48;17.80;;;4.00;;
67986;SDS011;54767;53.800;15.956;2023-02-01T09:16:17;15.20;;;3.50;;
67986;SDS011;54767;53.800;15.956;2023-02-01T09:18:45;17.80;;;4.40;;
67986;SDS011;54767;53.800;15.956;2023-02-01T09:21:28;19.50;;;4.80;;
67986;SDS011;54767;53.800;15.956;2023-02-01T09:23:57;14.50;;;4.70;;
67986;SDS011;54767;53.800;15.956;2023-02-01T09:26:25;15.20;;;4.50;;
67986;SDS011;54767;53.800;15.956;2023-02-01T09:28:59;15.40;;;4.50;;
67986;SDS011;54767;53.800;15.956;2023-02-01T09:31:28;14.90;;;4.70;;
67986;SDS011;54767;53.800;15.956;2023-02-01T09:33:58;15.30;;;4.20;;
67986;SDS011;54767;53.800;15.956;2023-02-01T09:36:26;14.70;;;4.00;;
67986;SDS011;54767;53.800;15.956;2023-02-01T09:38:58;11.30;;;4.50;;
67986;SDS011;54767;53.800;15.956;2023-02-01T09:47:11;16.30;;;4.60;;
67986;SDS011;54767;53.800;15.956;2023-02-01T09:49:54;17.50;;;5.30;;
67986;SDS011;54767;53.800;15.956;2023-02-01T09:52:34;12.70;;;4.40;;
67986;SDS011;54767;53.800;15.956;2023-02-01T10:01:03;12.60;;;4.70;;
67986;SDS011;54767;53.800;15.956;2023-02-01T10:03:40;16.70;;;5.30;;
67986;SDS011;54767;53.800;15.956;2023-02-01T10:09:12;11.90;;;3.90;;
67986;SDS011;54767;53.800;15.956;2023-02-01T10:22:07;10.20;;;3.60;;
67986;SDS011;54767;53.800;15.956;2023-02-01T10:24:39;14.10;;;3.90;;
67986;SDS011;54767;53.800;15.956;2023-02-01T10:29:39;8.70;;;2.70;;
67986;SDS011;54767;53.800;15.956;2023-02-01T10:32:13;8.90;;;2.70;;
67986;SDS011;54767;53.800;15.956;2023-02-01T10:34:58;6.50;;;2.20;;
67986;SDS011;54767;53.800;15.956;2023-02-01T10:37:32;10.70;;;2.50;;
67986;SDS011;54767;53.800;15.956;2023-02-01T10:40:09;8.80;;;2.70;;
67986;SDS011;54767;53.800;15.956;2023-02-01T10:42:45;5.90;;;2.40;;
67986;SDS011;54767;53.800;15.956;2023-02-01T10:45:19;7.10;;;2.90;;
67986;SDS011;54767;53.800;15.956;2023-02-01T10:47:50;11.20;;;3.70;;
67986;SDS011;54767;53.800;15.956;2023-02-01T10:55:47;7.10;;;2.30;;
67986;SDS011;54767;53.800;15.956;2023-02-01T10:58:19;6.10;;;1.80;;
67986;SDS011;54767;53.800;15.956;2023-02-01T11:00:53;7.00;;;2.10;;
67986;SDS011;54767;53.800;15.956;2023-02-01T11:06:21;3.50;;;1.70;;
67986;SDS011;54767;53.800;15.956;2023-02-01T11:08:57;4.50;;;1.50;;
67986;SDS011;54767;53.800;15.956;2023-02-01T11:11:27;3.20;;;1.60;;
67986;SDS011;54767;53.800;15.956;2023-02-01T11:14:01;6.70;;;1.60;;
67986;SDS011;54767;53.800;15.956;2023-02-01T11:16:41;3.70;;;1.10;;
67986;SDS011;54767;53.800;15.956;2023-02-01T11:19:16;4.90;;;1.30;;
67986;SDS011;54767;53.800;15.956;2023-02-01T11:21:49;5.60;;;1.30;;
67986;SDS011;54767;53.800;15.956;2023-02-01T11:24:22;4.00;;;1.20;;
67986;SDS011;54767;53.800;15.956;2023-02-01T11:26:57;5.10;;;1.30;;
67986;SDS011;54767;53.800;15.956;2023-02-01T11:29:47;6.80;;;1.60;;
67986;SDS011;54767;53.800;15.956;2023-02-01T11:32:20;4.70;;;1.30;;
67986;SDS011;54767;53.800;15.956;2023-02-01T11:35:00;8.30;;;1.80;;
67986;SDS011;54767;53.800;15.956;2023-02-01T11:37:36;5.70;;;1.40;;
67986;SDS011;54767;53.800;15.956;2023-02-01T11:42:54;5.30;;;1.10;;
67986;SDS011;54767;53.800;15.956;2023-02-01T11:45:29;3.80;;;1.20;;
67986;SDS011;54767;53.800;15.956;2023-02-01T11:47:59;5.30;;;1.00;;
67986;SDS011;54767;53.800;15.956;2023-02-01T11:50:31;5.70;;;1.20;;
67986;SDS011;54767;53.800;15.956;2023-02-01T11:56:08;1.80;;;0.90;;
67986;SDS011;54767;53.800;15.956;2023-02-01T12:07:10;2.60;;;1.00;;
67986;SDS011;54767;53.800;15.956;2023-02-01T12:12:40;4.10;;;1.30;;
67986;SDS011;54767;53.800;15.956;2023-02-01T12:15:54;2.30;;;1.00;;
67986;SDS011;54767;53.800;15.956;2023-02-01T12:21:14;4.10;;;0.90;;
67986;SDS011;54767;53.800;15.956;2023-02-01T12:27:17;1.80;;;1.10;;
67986;SDS011;54767;53.800;15.956;2023-02-01T12:38:19;2.30;;;0.80;;
67986;SDS011;54767;53.800;15.956;2023-02-01T12:40:59;4.90;;;1.20;;
67986;SDS011;54767;53.800;15.956;2023-02-01T12:43:47;3.20;;;1.30;;
67986;SDS011;54767;53.800;15.956;2023-02-01T12:49:11;2.80;;;1.30;;
67986;SDS011;54767;53.800;15.956;2023-02-01T12:51:46;2.20;;;0.90;;
67986;SDS011;54767;53.800;15.956;2023-02-01T12:58:11;4.90;;;1.10;;
67986;SDS011;54767;53.800;15.956;2023-02-01T13:00:46;4.30;;;1.10;;
67986;SDS011;54767;53.800;15.956;2023-02-01T13:03:28;3.90;;;1.20;;
67986;SDS011;54767;53.800;15.956;2023-02-01T13:06:15;3.90;;;1.20;;
67986;SDS011;54767;53.800;15.956;2023-02-01T13:11:46;4.70;;;1.20;;
67986;SDS011;54767;53.800;15.956;2023-02-01T13:14:29;3.40;;;1.10;;
67986;SDS011;54767;53.800;15.956;2023-02-01T13:17:42;5.10;;;1.10;;
67986;SDS011;54767;53.800;15.956;2023-02-01T13:27:05;6.00;;;1.70;;
67986;SDS011;54767;53.800;15.956;2023-02-01T13:29:37;6.30;;;1.90;;
67986;SDS011;54767;53.800;15.956;2023-02-01T13:33:12;3.20;;;1.60;;
67986;SDS011;54767;53.800;15.956;2023-02-01T13:43:26;4.30;;;1.40;;
67986;SDS011;54767;53.800;15.956;2023-02-01T13:46:02;2.60;;;1.50;;
67986;SDS011;54767;53.800;15.956;2023-02-01T13:48:38;3.60;;;1.10;;
67986;SDS011;54767;53.800;15.956;2023-02-01T13:54:03;3.60;;;1.10;;
67986;SDS011;54767;53.800;15.956;2023-02-01T13:56:39;1.60;;;0.90;;
67986;SDS011;54767;53.800;15.956;2023-02-01T14:05:10;5.10;;;1.50;;
67986;SDS011;54767;53.800;15.956;2023-02-01T14:15:28;5.70;;;1.50;;
67986;SDS011;54767;53.800;15.956;2023-02-01T14:21:19;6.10;;;1.40;;
67986;SDS011;54767;53.800;15.956;2023-02-01T14:24:17;4.20;;;1.50;;
67986;SDS011;54767;53.800;15.956;2023-02-01T14:32:18;4.70;;;1.80;;
67986;SDS011;54767;53.800;15.956;2023-02-01T14:38:08;4.40;;;2.20;;
67986;SDS011;54767;53.800;15.956;2023-02-01T14:41:29;6.50;;;2.70;;
67986;SDS011;54767;53.800;15.956;2023-02-01T14:50:47;5.80;;;1.80;;
67986;SDS011;54767;53.800;15.956;2023-02-01T14:53:35;4.80;;;2.00;;
67986;SDS011;54767;53.800;15.956;2023-02-01T14:59:38;5.10;;;2.00;;
67986;SDS011;54767;53.800;15.956;2023-02-01T15:02:19;4.90;;;1.70;;
67986;SDS011;54767;53.800;15.956;2023-02-01T15:12:40;8.30;;;2.30;;
67986;SDS011;54767;53.800;15.956;2023-02-01T15:15:20;3.10;;;2.00;;
67986;SDS011;54767;53.800;15.956;2023-02-01T15:18:00;4.30;;;1.90;;
67986;SDS011;54767;53.800;15.956;2023-02-01T15:25:47;6.20;;;1.90;;
67986;SDS011;54767;53.800;15.956;2023-02-01T15:28:15;6.40;;;2.00;;
67986;SDS011;54767;53.800;15.956;2023-02-01T15:38:20;5.60;;;2.00;;
67986;SDS011;54767;53.800;15.956;2023-02-01T15:41:48;5.00;;;1.90;;
67986;SDS011;54767;53.800;15.956;2023-02-01T15:44:27;5.80;;;1.90;;
67986;SDS011;54767;53.800;15.956;2023-02-01T15:47:04;9.30;;;2.20;;
67986;SDS011;54767;53.800;15.956;2023-02-01T15:49:44;3.90;;;1.60;;
67986;SDS011;54767;53.800;15.956;2023-02-01T15:52:36;5.30;;;1.60;;
67986;SDS011;54767;53.800;15.956;2023-02-01T15:55:21;4.10;;;1.80;;
67986;SDS011;54767;53.800;15.956;2023-02-01T15:57:51;4.50;;;1.30;;
67986;SDS011;54767;53.800;15.956;2023-02-01T16:00:24;7.40;;;2.40;;
67986;SDS011;54767;53.800;15.956;2023-02-01T16:03:05;7.30;;;2.40;;
67986;SDS011;54767;53.800;15.956;2023-02-01T16:05:54;5.10;;;2.10;;
67986;SDS011;54767;53.800;15.956;2023-02-01T16:08:26;6.40;;;2.40;;
67986;SDS011;54767;53.800;15.956;2023-02-01T16:11:00;8.90;;;2.70;;
67986;SDS011;54767;53.800;15.956;2023-02-01T16:13:49;8.90;;;2.90;;
67986;SDS011;54767;53.800;15.956;2023-02-01T16:18:48;11.10;;;3.30;;
67986;SDS011;54767;53.800;15.956;2023-02-01T16:21:16;12.10;;;4.10;;
67986;SDS011;54767;53.800;15.956;2023-02-01T16:23:48;11.50;;;4.50;;
67986;SDS011;54767;53.800;15.956;2023-02-01T16:26:20;12.40;;;4.50;;
67986;SDS011;54767;53.800;15.956;2023-02-01T16:28:49;10.40;;;3.70;;
67986;SDS011;54767;53.800;15.956;2023-02-01T16:31:17;10.00;;;3.90;;
67986;SDS011;54767;53.800;15.956;2023-02-01T16:33:51;12.10;;;3.70;;
67986;SDS011;54767;53.800;15.956;2023-02-01T16:36:20;9.60;;;3.70;;
67986;SDS011;54767;53.800;15.956;2023-02-01T16:38:49;13.70;;;3.10;;
67986;SDS011;54767;53.800;15.956;2023-02-01T16:41:20;8.80;;;3.20;;
67986;SDS011;54767;53.800;15.956;2023-02-01T16:43:51;8.50;;;3.20;;
67986;SDS011;54767;53.800;15.956;2023-02-01T16:46:22;6.30;;;3.00;;
67986;SDS011;54767;53.800;15.956;2023-02-01T16:48:54;7.80;;;2.80;;
67986;SDS011;54767;53.800;15.956;2023-02-01T16:51:26;6.80;;;2.30;;
67986;SDS011;54767;53.800;15.956;2023-02-01T16:54:00;6.50;;;2.10;;
67986;SDS011;54767;53.800;15.956;2023-02-01T16:56:30;6.70;;;2.30;;
67986;SDS011;54767;53.800;15.956;2023-02-01T16:59:01;6.00;;;2.40;;
67986;SDS011;54767;53.800;15.956;2023-02-01T17:01:30;3.40;;;1.90;;
67986;SDS011;54767;53.800;15.956;2023-02-01T17:03:58;4.80;;;2.10;;
67986;SDS011;54767;53.800;15.956;2023-02-01T17:06:26;5.20;;;2.20;;
67986;SDS011;54767;53.800;15.956;2023-02-01T17:09:00;6.60;;;2.40;;
67986;SDS011;54767;53.800;15.956;2023-02-01T17:11:31;6.10;;;2.50;;
67986;SDS011;54767;53.800;15.956;2023-02-01T17:14:19;5.90;;;2.50;;
67986;SDS011;54767;53.800;15.956;2023-02-01T17:16:49;6.00;;;2.50;;
67986;SDS011;54767;53.800;15.956;2023-02-01T17:19:19;8.90;;;2.50;;
67986;SDS011;54767;53.800;15.956;2023-02-01T17:21:52;6.60;;;2.50;;
67986;SDS011;54767;53.800;15.956;2023-02-01T17:24:30;5.70;;;2.40;;
67986;SDS011;54767;53.800;15.956;2023-02-01T17:27:15;4.50;;;2.30;;
67986;SDS011;54767;53.800;15.956;2023-02-01T17:32:18;8.90;;;3.20;;
67986;SDS011;54767;53.800;15.956;2023-02-01T17:34:49;8.50;;;3.00;;
67986;SDS011;54767;53.800;15.956;2023-02-01T17:37:28;10.40;;;3.40;;
67986;SDS011;54767;53.800;15.956;2023-02-01T17:39:59;6.10;;;2.80;;
67986;SDS011;54767;53.800;15.956;2023-02-01T17:42:28;9.20;;;3.50;;
67986;SDS011;54767;53.800;15.956;2023-02-01T17:44:59;9.50;;;3.60;;
67986;SDS011;54767;53.800;15.956;2023-02-01T17:47:30;7.10;;;3.20;;
67986;SDS011;54767;53.800;15.956;2023-02-01T17:49:58;7.40;;;3.00;;
67986;SDS011;54767;53.800;15.956;2023-02-01T17:52:26;9.10;;;3.40;;
67986;SDS011;54767;53.800;15.956;2023-02-01T17:54:56;4.50;;;2.50;;
67986;SDS011;54767;53.800;15.956;2023-02-01T17:57:24;4.70;;;2.70;;
67986;SDS011;54767;53.800;15.956;2023-02-01T17:59:53;4.80;;;2.40;;
67986;SDS011;54767;53.800;15.956;2023-02-01T18:02:22;5.90;;;3.30;;
67986;SDS011;54767;53.800;15.956;2023-02-01T18:04:52;6.10;;;2.60;;
67986;SDS011;54767;53.800;15.956;2023-02-01T18:07:20;6.60;;;2.10;;
67986;SDS011;54767;53.800;15.956;2023-02-01T18:09:49;3.00;;;1.80;;
67986;SDS011;54767;53.800;15.956;2023-02-01T18:12:21;3.30;;;1.60;;
67986;SDS011;54767;53.800;15.956;2023-02-01T18:14:53;3.10;;;1.70;;
67986;SDS011;54767;53.800;15.956;2023-02-01T18:17:21;5.50;;;2.10;;
67986;SDS011;54767;53.800;15.956;2023-02-01T18:19:49;4.10;;;2.00;;